createdAt,value
2023-04-21T00:02:54.999Z,67.90
2023-04-21T00:07:57.050Z,68.20
2023-04-21T00:12:58.753Z,68.20
2023-04-21T00:18:00.585Z,68.60
2023-04-21T00:23:03.644Z,68.80
2023-04-21T00:28:05.591Z,69.00
2023-04-21T00:33:07.468Z,69.20
2023-04-21T00:38:09.267Z,69.10
2023-04-21T00:43:11.162Z,69.50
2023-04-21T00:48:13.365Z,69.80
2023-04-21T00:53:15.818Z,70.30
2023-04-21T00:58:17.743Z,70.30
2023-04-21T01:03:19.656Z,71.20
2023-04-21T01:08:22.343Z,71.30
2023-04-21T01:13:24.169Z,71.80
2023-04-21T01:18:26.093Z,72.30
2023-04-21T01:23:28.108Z,73.00
2023-04-21T01:28:29.808Z,72.70
2023-04-21T01:33:32.224Z,73.90
2023-04-21T01:38:34.081Z,74.80
2023-04-21T01:43:37.215Z,77.10
2023-04-21T01:48:38.967Z,78.10
2023-04-21T01:53:40.745Z,78.10
2023-04-21T01:58:42.498Z,79.20
2023-04-21T02:03:44.496Z,81.00
2023-04-21T02:08:46.766Z,82.00
2023-04-21T02:13:48.927Z,81.80
2023-04-21T02:18:50.617Z,82.60
2023-04-21T02:23:52.527Z,83.20
2023-04-21T02:28:54.251Z,83.80
2023-04-21T02:33:56.523Z,85.40
2023-04-21T02:38:58.377Z,85.60
2023-04-21T02:44:00.105Z,86.80
2023-04-21T02:49:01.929Z,88.10
2023-04-21T02:54:03.785Z,88.50
2023-04-21T02:59:05.569Z,89.30
2023-04-21T03:04:07.437Z,90.60
2023-04-21T03:09:09.471Z,91.10
2023-04-21T03:14:11.164Z,91.50
2023-04-21T03:19:12.865Z,91.40
2023-04-21T03:24:14.669Z,91.40
2023-04-21T03:29:16.586Z,92.10
2023-04-21T03:34:18.573Z,92.60
2023-04-21T03:39:20.607Z,92.40
2023-04-21T03:44:24.988Z,92.30
2023-04-21T03:49:26.713Z,91.20
2023-04-21T03:54:28.765Z,88.60
2023-04-21T03:59:30.520Z,87.70
2023-04-21T04:04:32.739Z,85.10
2023-04-21T04:09:34.718Z,78.80
2023-04-21T04:14:36.542Z,74.70
2023-04-21T04:19:38.298Z,71.90
2023-04-21T04:24:40.061Z,70.90
2023-04-21T04:29:41.944Z,71.10
2023-04-21T04:34:43.703Z,66.70
2023-04-21T04:39:45.711Z,66.00
2023-04-21T04:44:47.584Z,68.90
2023-04-21T04:49:49.473Z,66.60
2023-04-21T04:54:51.258Z,64.60
2023-04-21T04:59:56.367Z,63.80
2023-04-21T05:04:58.290Z,58.40
2023-04-21T05:10:01.090Z,55.20
2023-04-21T05:15:03.059Z,55.50
2023-04-21T05:20:06.647Z,52.60
2023-04-21T05:25:11.761Z,48.50
2023-04-21T05:30:13.521Z,44.30
2023-04-21T05:35:15.426Z,43.00
2023-04-21T05:40:17.197Z,43.10
2023-04-21T05:45:19.231Z,36.60
2023-04-21T05:50:21.171Z,35.20
2023-04-21T05:55:24.225Z,34.60
2023-04-21T06:00:26.041Z,35.80
2023-04-21T06:05:27.752Z,36.60
2023-04-21T06:10:31.128Z,40.90
2023-04-21T06:15:32.913Z,42.90
2023-04-21T06:20:34.779Z,41.90
2023-04-21T06:25:36.484Z,38.90
2023-04-21T06:30:38.529Z,37.40
2023-04-21T06:35:40.295Z,35.00
2023-04-21T06:40:42.118Z,29.20
2023-04-21T06:45:43.858Z,27.90
2023-04-21T06:50:46.486Z,25.30
2023-04-21T06:55:48.691Z,25.20
2023-04-21T07:00:50.748Z,24.10
2023-04-21T07:05:52.734Z,23.60
2023-04-21T07:10:54.670Z,24.50
2023-04-21T07:15:56.895Z,25.50
2023-04-21T07:20:58.873Z,23.70
2023-04-21T07:26:00.897Z,21.90
2023-04-21T07:31:03.604Z,23.00
2023-04-21T07:36:06.099Z,22.00
2023-04-21T07:41:07.816Z,22.70
2023-04-21T07:46:09.605Z,22.40
2023-04-21T07:51:11.425Z,21.80
2023-04-21T07:56:13.498Z,20.70
2023-04-21T08:01:15.957Z,20.40
2023-04-21T08:06:17.873Z,22.10
2023-04-21T08:11:19.859Z,23.10
2023-04-21T08:16:21.869Z,23.90
2023-04-21T08:21:24.638Z,24.50
2023-04-21T08:26:26.914Z,24.60
2023-04-21T08:31:29.058Z,25.20
2023-04-21T08:36:32.137Z,22.90
2023-04-21T08:41:34.333Z,24.10
2023-04-21T08:46:36.848Z,23.40
2023-04-21T08:51:38.878Z,22.10
2023-04-21T08:56:40.938Z,22.50
2023-04-21T09:02:18.823Z,22.00
2023-04-21T09:07:39.193Z,22.00
2023-04-21T09:12:41.181Z,23.20
2023-04-21T09:17:45.897Z,23.70
2023-04-21T09:22:55.283Z,24.10
2023-04-21T09:27:57.178Z,22.80
2023-04-21T09:32:58.967Z,23.40
2023-04-21T09:38:02.655Z,21.20
2023-04-21T09:43:04.781Z,20.30
2023-04-21T09:48:10.226Z,23.30
2023-04-21T09:53:17.073Z,23.20
2023-04-21T09:58:23.723Z,25.30
2023-04-21T10:03:29.077Z,25.30
2023-04-21T10:08:31.252Z,22.20
2023-04-21T10:13:33.953Z,20.70
2023-04-21T10:18:37.646Z,25.70
2023-04-21T10:23:47.410Z,30.60
2023-04-21T10:29:00.276Z,33.90
2023-04-21T10:34:14.161Z,37.30
2023-04-21T10:39:55.064Z,39.70
2023-04-21T10:44:56.916Z,40.80
2023-04-21T10:50:00.375Z,42.50
2023-04-21T10:55:02.103Z,41.60
2023-04-21T11:00:09.061Z,41.90
2023-04-21T11:05:11.582Z,44.00
2023-04-21T11:10:13.506Z,44.20
2023-04-21T11:15:16.493Z,44.40
2023-04-21T11:20:18.270Z,45.90
2023-04-21T11:25:20.019Z,46.50
2023-04-21T11:30:42.572Z,46.30
2023-04-21T11:35:44.498Z,45.80
2023-04-21T11:40:49.597Z,45.20
2023-04-21T11:45:51.670Z,45.30
2023-04-21T11:50:53.412Z,44.20
2023-04-21T11:55:57.182Z,43.10
2023-04-21T12:01:06.936Z,42.60
2023-04-21T12:06:08.855Z,44.20
2023-04-21T12:11:11.527Z,44.20
2023-04-21T12:16:13.704Z,43.20
2023-04-21T12:21:16.634Z,43.50
2023-04-21T12:26:18.340Z,44.70
2023-04-21T12:31:20.194Z,44.60
2023-04-21T12:36:21.996Z,45.00
2023-04-21T12:41:23.713Z,45.10
2023-04-21T12:46:25.523Z,45.00
2023-04-21T12:51:27.380Z,45.40
2023-04-21T12:56:29.898Z,46.30
2023-04-21T13:01:31.663Z,45.40
2023-04-21T13:06:33.896Z,46.10
2023-04-21T13:11:35.833Z,46.80
2023-04-21T13:16:37.714Z,47.80
2023-04-21T13:21:39.512Z,48.60
2023-04-21T13:26:41.513Z,49.60
2023-04-21T13:31:43.302Z,49.60
2023-04-21T13:36:45.102Z,51.30
2023-04-21T13:41:46.980Z,51.90
2023-04-21T13:46:48.838Z,52.60
2023-04-21T13:51:50.699Z,52.90
2023-04-21T13:56:52.525Z,53.30
2023-04-21T14:01:54.335Z,54.00
2023-04-21T14:06:56.263Z,54.10
2023-04-21T14:11:58.089Z,53.40
2023-04-21T14:17:00.052Z,53.80
2023-04-21T14:22:02.315Z,53.80
2023-04-21T14:27:04.174Z,52.70
2023-04-21T14:32:06.076Z,52.30
2023-04-21T14:37:07.981Z,52.30
2023-04-21T14:42:09.791Z,53.20
2023-04-21T14:47:11.687Z,53.30
2023-04-21T14:52:13.646Z,53.60
2023-04-21T14:57:19.533Z,54.40
2023-04-21T15:02:23.035Z,54.80
2023-04-21T15:07:25.227Z,54.90
2023-04-21T15:12:27.375Z,55.00
2023-04-21T15:17:29.306Z,55.50
2023-04-21T15:22:31.320Z,56.80
2023-04-21T15:27:33.179Z,57.70
2023-04-21T15:32:35.383Z,57.80
2023-04-21T15:37:37.107Z,58.80
2023-04-21T15:42:38.933Z,59.50
2023-04-21T15:47:40.888Z,59.30
2023-04-21T15:52:43.448Z,59.40
2023-04-21T15:57:46.002Z,60.10
2023-04-21T16:02:48.633Z,60.00
2023-04-21T16:07:50.607Z,60.50
2023-04-21T16:12:52.583Z,61.20
2023-04-21T16:17:54.752Z,61.20
2023-04-21T16:22:56.542Z,61.70
2023-04-21T16:27:58.371Z,61.70
2023-04-21T16:33:00.138Z,62.10
2023-04-21T16:38:02.007Z,62.50
2023-04-21T16:43:03.896Z,62.70
2023-04-21T16:48:05.890Z,63.20
2023-04-21T16:53:08.542Z,64.00
2023-04-21T16:58:10.328Z,64.00
2023-04-21T17:03:12.170Z,64.10
2023-04-21T17:08:14.158Z,64.70
2023-04-21T17:13:16.037Z,65.00
2023-04-21T17:18:17.867Z,66.00
2023-04-21T17:23:19.723Z,66.30
2023-04-21T17:28:21.490Z,66.50
2023-04-21T17:33:23.308Z,66.90
2023-04-21T17:38:25.148Z,67.10
2023-04-21T17:43:26.904Z,67.80
2023-04-21T17:48:28.773Z,68.30
2023-04-21T17:53:30.973Z,69.10
2023-04-21T17:58:32.732Z,69.80
2023-04-21T18:03:36.208Z,70.80
2023-04-21T18:08:38.460Z,70.80
2023-04-21T18:13:40.249Z,71.70
2023-04-21T18:18:42.111Z,72.80
2023-04-21T18:23:44.352Z,73.70
2023-04-21T18:28:46.095Z,74.60
2023-04-21T18:33:49.029Z,74.80
2023-04-21T18:38:50.813Z,75.90
2023-04-21T18:43:52.652Z,76.20
2023-04-21T18:48:54.464Z,77.10
2023-04-21T18:53:56.591Z,77.60
2023-04-21T18:58:59.065Z,78.20
2023-04-21T19:04:01.009Z,79.00
2023-04-21T19:09:02.952Z,79.40
2023-04-21T19:14:04.812Z,79.80
2023-04-21T19:19:06.904Z,80.10
2023-04-21T19:24:08.658Z,80.30
2023-04-21T19:29:12.308Z,80.90
2023-04-21T19:34:14.000Z,81.70
2023-04-21T19:39:15.775Z,81.60
2023-04-21T19:44:17.515Z,82.30
2023-04-21T19:49:19.740Z,82.00
2023-04-21T19:54:21.508Z,82.70
2023-04-21T19:59:23.210Z,82.90
2023-04-21T20:04:25.283Z,83.00
2023-04-21T20:09:27.105Z,82.90
2023-04-21T20:14:28.849Z,82.80
2023-04-21T20:19:31.069Z,83.00
2023-04-21T20:24:32.924Z,83.30
2023-04-21T20:29:34.849Z,83.50
2023-04-21T20:34:36.662Z,83.60
2023-04-21T20:39:38.759Z,84.00
2023-04-21T20:44:43.107Z,85.10
2023-04-21T20:49:46.944Z,85.70
2023-04-21T20:54:48.801Z,86.00
2023-04-21T20:59:50.923Z,86.40
2023-04-21T21:04:52.702Z,87.10
2023-04-21T21:09:56.229Z,88.30
2023-04-21T21:14:58.017Z,88.40
2023-04-21T21:20:00.005Z,88.80
2023-04-21T21:25:01.787Z,89.30
2023-04-21T21:30:04.159Z,89.50
2023-04-21T21:35:07.599Z,90.00
2023-04-21T21:40:09.901Z,90.00
2023-04-21T21:45:11.945Z,90.20
2023-04-21T21:50:13.723Z,90.50
2023-04-21T21:55:15.614Z,90.70
2023-04-21T22:00:18.691Z,90.80
2023-04-21T22:05:21.209Z,91.30
2023-04-21T22:10:24.262Z,91.50
2023-04-21T22:15:26.343Z,91.20
2023-04-21T22:20:28.656Z,91.20
2023-04-21T22:25:30.720Z,91.70
2023-04-21T22:30:32.639Z,92.30
2023-04-21T22:35:34.453Z,92.50
2023-04-21T22:40:36.414Z,92.50
2023-04-21T22:45:38.355Z,92.70
2023-04-21T22:50:40.092Z,93.20
2023-04-21T22:55:42.288Z,93.50
2023-04-21T23:00:44.420Z,94.10
2023-04-21T23:05:46.231Z,94.60
2023-04-21T23:10:48.288Z,95.20
2023-04-21T23:15:50.331Z,95.50
2023-04-21T23:20:52.884Z,96.10
2023-04-21T23:25:54.860Z,95.80
2023-04-21T23:30:56.710Z,96.30
2023-04-21T23:35:58.646Z,96.80
2023-04-21T23:41:00.896Z,97.20
2023-04-21T23:46:03.156Z,98.30
2023-04-21T23:51:05.205Z,98.50
2023-04-21T23:56:07.570Z,98.60
